sensor_id;sensor_type;location;lat;lon;timestamp;P1;durP1;ratioP1;P2;durP2;ratioP2
6667;SDS011;3370;47.712;9.082;2024-01-06T00:01:47;31.27;;;20.67;;
6667;SDS011;3370;47.712;9.082;2024-01-06T00:04:13;32.10;;;21.60;;
6667;SDS011;3370;47.712;9.082;2024-01-06T00:06:39;28.47;;;19.77;;
6667;SDS011;3370;47.712;9.082;2024-01-06T00:09:04;28.33;;;19.33;;
6667;SDS011;3370;47.712;9.082;2024-01-06T00:11:30;30.60;;;18.90;;
6667;SDS011;3370;47.712;9.082;2024-01-06T00:13:56;22.30;;;16.63;;
6667;SDS011;3370;47.712;9.082;2024-01-06T00:16:22;26.67;;;17.83;;
6667;SDS011;3370;47.712;9.082;2024-01-06T00:18:47;22.90;;;16.50;;
6667;SDS011;3370;47.712;9.082;2024-01-06T00:21:13;21.00;;;15.80;;
6667;SDS011;3370;47.712;9.082;2024-01-06T00:23:40;19.43;;;14.90;;
6667;SDS011;3370;47.712;9.082;2024-01-06T00:26:06;22.27;;;16.03;;
6667;SDS011;3370;47.712;9.082;2024-01-06T00:28:33;19.10;;;15.00;;
6667;SDS011;3370;47.712;9.082;2024-01-06T00:30:59;18.43;;;14.23;;
6667;SDS011;3370;47.712;9.082;2024-01-06T00:33:25;21.77;;;14.57;;
6667;SDS011;3370;47.712;9.082;2024-01-06T00:35:50;19.53;;;15.50;;
6667;SDS011;3370;47.712;9.082;2024-01-06T00:38:16;25.90;;;15.47;;
6667;SDS011;3370;47.712;9.082;2024-01-06T00:40:42;19.03;;;14.47;;
6667;SDS011;3370;47.712;9.082;2024-01-06T00:43:08;20.67;;;14.43;;
6667;SDS011;3370;47.712;9.082;2024-01-06T00:45:33;17.90;;;13.50;;
6667;SDS011;3370;47.712;9.082;2024-01-06T00:47:59;18.83;;;15.40;;
6667;SDS011;3370;47.712;9.082;2024-01-06T00:50:25;17.10;;;13.13;;
6667;SDS011;3370;47.712;9.082;2024-01-06T00:52:51;18.07;;;14.13;;
6667;SDS011;3370;47.712;9.082;2024-01-06T00:55:18;21.57;;;13.80;;
6667;SDS011;3370;47.712;9.082;2024-01-06T00:57:45;19.87;;;13.90;;
6667;SDS011;3370;47.712;9.082;2024-01-06T01:00:11;19.90;;;14.50;;
6667;SDS011;3370;47.712;9.082;2024-01-06T01:02:38;18.57;;;14.03;;
6667;SDS011;3370;47.712;9.082;2024-01-06T01:05:04;18.03;;;13.27;;
6667;SDS011;3370;47.712;9.082;2024-01-06T01:07:32;17.33;;;13.30;;
6667;SDS011;3370;47.712;9.082;2024-01-06T01:09:58;19.03;;;12.70;;
6667;SDS011;3370;47.712;9.082;2024-01-06T01:12:24;14.17;;;11.80;;
6667;SDS011;3370;47.712;9.082;2024-01-06T01:14:49;19.67;;;14.77;;
6667;SDS011;3370;47.712;9.082;2024-01-06T01:17:16;16.20;;;13.33;;
6667;SDS011;3370;47.712;9.082;2024-01-06T01:19:42;15.43;;;12.43;;
6667;SDS011;3370;47.712;9.082;2024-01-06T01:22:08;17.73;;;13.60;;
6667;SDS011;3370;47.712;9.082;2024-01-06T01:24:34;17.87;;;13.17;;
6667;SDS011;3370;47.712;9.082;2024-01-06T01:27:00;19.00;;;13.73;;
6667;SDS011;3370;47.712;9.082;2024-01-06T01:29:25;17.23;;;14.30;;
6667;SDS011;3370;47.712;9.082;2024-01-06T01:31:51;17.00;;;13.80;;
6667;SDS011;3370;47.712;9.082;2024-01-06T01:34:17;17.60;;;13.43;;
6667;SDS011;3370;47.712;9.082;2024-01-06T01:36:43;15.30;;;12.07;;
6667;SDS011;3370;47.712;9.082;2024-01-06T01:39:08;13.90;;;11.20;;
6667;SDS011;3370;47.712;9.082;2024-01-06T01:41:34;15.03;;;12.37;;
6667;SDS011;3370;47.712;9.082;2024-01-06T01:44:01;16.63;;;12.53;;
6667;SDS011;3370;47.712;9.082;2024-01-06T01:46:30;16.87;;;11.40;;
6667;SDS011;3370;47.712;9.082;2024-01-06T01:48:56;14.23;;;11.40;;
6667;SDS011;3370;47.712;9.082;2024-01-06T01:51:27;16.57;;;12.90;;
6667;SDS011;3370;47.712;9.082;2024-01-06T01:53:59;16.23;;;13.00;;
6667;SDS011;3370;47.712;9.082;2024-01-06T01:56:27;16.70;;;12.30;;
6667;SDS011;3370;47.712;9.082;2024-01-06T01:58:58;14.03;;;11.17;;
6667;SDS011;3370;47.712;9.082;2024-01-06T02:01:32;13.57;;;10.80;;
6667;SDS011;3370;47.712;9.082;2024-01-06T02:03:58;11.27;;;10.07;;
6667;SDS011;3370;47.712;9.082;2024-01-06T02:06:24;14.07;;;11.10;;
6667;SDS011;3370;47.712;9.082;2024-01-06T02:08:50;15.43;;;11.23;;
6667;SDS011;3370;47.712;9.082;2024-01-06T02:11:16;16.10;;;12.07;;
6667;SDS011;3370;47.712;9.082;2024-01-06T02:13:42;16.17;;;12.50;;
6667;SDS011;3370;47.712;9.082;2024-01-06T02:16:07;21.10;;;11.50;;
6667;SDS011;3370;47.712;9.082;2024-01-06T02:18:33;19.10;;;13.17;;
6667;SDS011;3370;47.712;9.082;2024-01-06T02:21:00;16.43;;;12.90;;
6667;SDS011;3370;47.712;9.082;2024-01-06T02:23:30;16.67;;;12.93;;
6667;SDS011;3370;47.712;9.082;2024-01-06T02:25:56;18.77;;;13.53;;
6667;SDS011;3370;47.712;9.082;2024-01-06T02:28:22;18.10;;;12.30;;
6667;SDS011;3370;47.712;9.082;2024-01-06T02:30:48;19.27;;;13.40;;
6667;SDS011;3370;47.712;9.082;2024-01-06T02:33:15;18.50;;;12.17;;
6667;SDS011;3370;47.712;9.082;2024-01-06T02:35:40;19.30;;;12.47;;
6667;SDS011;3370;47.712;9.082;2024-01-06T02:38:06;13.90;;;11.37;;
6667;SDS011;3370;47.712;9.082;2024-01-06T02:40:33;14.73;;;10.60;;
6667;SDS011;3370;47.712;9.082;2024-01-06T02:42:59;14.00;;;10.23;;
6667;SDS011;3370;47.712;9.082;2024-01-06T02:45:25;13.80;;;10.03;;
6667;SDS011;3370;47.712;9.082;2024-01-06T02:47:51;13.00;;;9.50;;
6667;SDS011;3370;47.712;9.082;2024-01-06T02:50:17;13.00;;;8.50;;
6667;SDS011;3370;47.712;9.082;2024-01-06T02:52:43;10.27;;;8.57;;
6667;SDS011;3370;47.712;9.082;2024-01-06T02:55:10;11.07;;;8.40;;
6667;SDS011;3370;47.712;9.082;2024-01-06T02:57:37;11.40;;;8.97;;
6667;SDS011;3370;47.712;9.082;2024-01-06T03:00:03;8.47;;;6.87;;
6667;SDS011;3370;47.712;9.082;2024-01-06T03:02:29;6.80;;;5.87;;
6667;SDS011;3370;47.712;9.082;2024-01-06T03:04:55;9.30;;;6.23;;
6667;SDS011;3370;47.712;9.082;2024-01-06T03:07:21;5.97;;;4.57;;
6667;SDS011;3370;47.712;9.082;2024-01-06T03:09:47;4.97;;;4.37;;
6667;SDS011;3370;47.712;9.082;2024-01-06T03:12:13;3.33;;;3.03;;
6667;SDS011;3370;47.712;9.082;2024-01-06T03:14:39;3.87;;;3.20;;
6667;SDS011;3370;47.712;9.082;2024-01-06T03:17:04;3.00;;;2.77;;
6667;SDS011;3370;47.712;9.082;2024-01-06T03:19:30;4.30;;;3.30;;
6667;SDS011;3370;47.712;9.082;2024-01-06T03:21:56;4.23;;;2.70;;
6667;SDS011;3370;47.712;9.082;2024-01-06T03:24:23;4.10;;;2.80;;
6667;SDS011;3370;47.712;9.082;2024-01-06T03:26:50;3.90;;;2.77;;
6667;SDS011;3370;47.712;9.082;2024-01-06T03:29:16;3.50;;;2.60;;
6667;SDS011;3370;47.712;9.082;2024-01-06T03:31:42;3.33;;;2.47;;
6667;SDS011;3370;47.712;9.082;2024-01-06T03:34:11;9.77;;;3.53;;
6667;SDS011;3370;47.712;9.082;2024-01-06T03:36:38;2.40;;;2.20;;
6667;SDS011;3370;47.712;9.082;2024-01-06T03:39:04;2.30;;;2.10;;
6667;SDS011;3370;47.712;9.082;2024-01-06T03:41:31;2.20;;;1.90;;
6667;SDS011;3370;47.712;9.082;2024-01-06T03:43:56;7.60;;;2.67;;
6667;SDS011;3370;47.712;9.082;2024-01-06T03:46:23;3.80;;;2.83;;
6667;SDS011;3370;47.712;9.082;2024-01-06T03:48:49;3.50;;;1.80;;
6667;SDS011;3370;47.712;9.082;2024-01-06T03:51:15;3.90;;;2.50;;
6667;SDS011;3370;47.712;9.082;2024-01-06T03:53:41;4.70;;;2.53;;
6667;SDS011;3370;47.712;9.082;2024-01-06T03:56:07;2.60;;;2.40;;
6667;SDS011;3370;47.712;9.082;2024-01-06T03:58:33;5.73;;;2.33;;
6667;SDS011;3370;47.712;9.082;2024-01-06T04:00:59;2.43;;;2.20;;
6667;SDS011;3370;47.712;9.082;2024-01-06T04:03:25;3.87;;;2.00;;
6667;SDS011;3370;47.712;9.082;2024-01-06T04:05:51;5.03;;;2.77;;
6667;SDS011;3370;47.712;9.082;2024-01-06T04:08:17;2.60;;;2.00;;
6667;SDS011;3370;47.712;9.082;2024-01-06T04:10:43;2.70;;;1.80;;
6667;SDS011;3370;47.712;9.082;2024-01-06T04:13:10;2.73;;;2.20;;
6667;SDS011;3370;47.712;9.082;2024-01-06T04:15:36;3.03;;;2.70;;
6667;SDS011;3370;47.712;9.082;2024-01-06T04:18:02;2.00;;;1.90;;
6667;SDS011;3370;47.712;9.082;2024-01-06T04:20:30;9.07;;;2.57;;
6667;SDS011;3370;47.712;9.082;2024-01-06T04:22:56;2.80;;;2.50;;
6667;SDS011;3370;47.712;9.082;2024-01-06T04:25:22;2.37;;;2.17;;
6667;SDS011;3370;47.712;9.082;2024-01-06T04:27:48;3.27;;;2.43;;
6667;SDS011;3370;47.712;9.082;2024-01-06T04:30:14;5.80;;;2.63;;
6667;SDS011;3370;47.712;9.082;2024-01-06T04:32:41;5.73;;;2.73;;
6667;SDS011;3370;47.712;9.082;2024-01-06T04:35:07;2.80;;;2.60;;
6667;SDS011;3370;47.712;9.082;2024-01-06T04:37:33;6.27;;;2.80;;
6667;SDS011;3370;47.712;9.082;2024-01-06T04:39:59;3.30;;;2.33;;
6667;SDS011;3370;47.712;9.082;2024-01-06T04:42:26;3.23;;;2.63;;
6667;SDS011;3370;47.712;9.082;2024-01-06T04:44:52;3.30;;;3.00;;
6667;SDS011;3370;47.712;9.082;2024-01-06T04:47:18;3.33;;;3.03;;
6667;SDS011;3370;47.712;9.082;2024-01-06T04:49:44;5.70;;;3.67;;
6667;SDS011;3370;47.712;9.082;2024-01-06T04:52:10;5.17;;;3.27;;
6667;SDS011;3370;47.712;9.082;2024-01-06T04:54:36;3.90;;;3.20;;
6667;SDS011;3370;47.712;9.082;2024-01-06T04:57:02;4.67;;;4.27;;
6667;SDS011;3370;47.712;9.082;2024-01-06T04:59:29;3.30;;;3.10;;
6667;SDS011;3370;47.712;9.082;2024-01-06T05:01:55;6.00;;;3.50;;
6667;SDS011;3370;47.712;9.082;2024-01-06T05:04:22;5.90;;;3.60;;
6667;SDS011;3370;47.712;9.082;2024-01-06T05:06:48;3.50;;;3.10;;
6667;SDS011;3370;47.712;9.082;2024-01-06T05:09:16;9.43;;;2.90;;
6667;SDS011;3370;47.712;9.082;2024-01-06T05:11:45;5.60;;;3.00;;
6667;SDS011;3370;47.712;9.082;2024-01-06T05:14:11;2.40;;;2.20;;
6667;SDS011;3370;47.712;9.082;2024-01-06T05:16:37;3.40;;;2.50;;
6667;SDS011;3370;47.712;9.082;2024-01-06T05:19:02;2.50;;;2.30;;
6667;SDS011;3370;47.712;9.082;2024-01-06T05:21:29;2.63;;;2.47;;
6667;SDS011;3370;47.712;9.082;2024-01-06T05:23:55;2.23;;;2.13;;
6667;SDS011;3370;47.712;9.082;2024-01-06T05:26:20;5.17;;;2.30;;
6667;SDS011;3370;47.712;9.082;2024-01-06T05:28:46;3.60;;;2.30;;
6667;SDS011;3370;47.712;9.082;2024-01-06T05:31:12;3.83;;;1.80;;
6667;SDS011;3370;47.712;9.082;2024-01-06T05:33:38;3.40;;;2.40;;
6667;SDS011;3370;47.712;9.082;2024-01-06T05:36:03;4.10;;;2.50;;
6667;SDS011;3370;47.712;9.082;2024-01-06T05:38:29;3.40;;;2.70;;
6667;SDS011;3370;47.712;9.082;2024-01-06T05:40:55;2.80;;;2.30;;
6667;SDS011;3370;47.712;9.082;2024-01-06T05:43:21;6.73;;;2.07;;
6667;SDS011;3370;47.712;9.082;2024-01-06T05:45:47;3.73;;;2.20;;
6667;SDS011;3370;47.712;9.082;2024-01-06T05:48:13;2.23;;;1.87;;
6667;SDS011;3370;47.712;9.082;2024-01-06T05:50:38;6.10;;;2.67;;
6667;SDS011;3370;47.712;9.082;2024-01-06T05:53:05;1.87;;;1.77;;
6667;SDS011;3370;47.712;9.082;2024-01-06T05:55:31;2.80;;;1.90;;
6667;SDS011;3370;47.712;9.082;2024-01-06T05:57:57;3.73;;;1.97;;
6667;SDS011;3370;47.712;9.082;2024-01-06T06:00:23;1.77;;;1.60;;
6667;SDS011;3370;47.712;9.082;2024-01-06T06:02:49;2.77;;;1.50;;
6667;SDS011;3370;47.712;9.082;2024-01-06T06:05:15;4.23;;;1.80;;
6667;SDS011;3370;47.712;9.082;2024-01-06T06:07:41;1.80;;;1.43;;
6667;SDS011;3370;47.712;9.082;2024-01-06T06:10:08;2.27;;;1.87;;
6667;SDS011;3370;47.712;9.082;2024-01-06T06:12:35;2.73;;;1.50;;
6667;SDS011;3370;47.712;9.082;2024-01-06T06:15:02;1.90;;;1.80;;
6667;SDS011;3370;47.712;9.082;2024-01-06T06:17:29;2.10;;;1.90;;
6667;SDS011;3370;47.712;9.082;2024-01-06T06:19:56;1.27;;;1.27;;
6667;SDS011;3370;47.712;9.082;2024-01-06T06:22:23;1.93;;;1.83;;
6667;SDS011;3370;47.712;9.082;2024-01-06T06:24:51;3.90;;;2.10;;
6667;SDS011;3370;47.712;9.082;2024-01-06T06:27:17;5.27;;;1.93;;
6667;SDS011;3370;47.712;9.082;2024-01-06T06:29:43;4.30;;;1.97;;
6667;SDS011;3370;47.712;9.082;2024-01-06T06:32:09;4.23;;;1.83;;
6667;SDS011;3370;47.712;9.082;2024-01-06T06:34:34;4.23;;;2.27;;
6667;SDS011;3370;47.712;9.082;2024-01-06T06:37:00;9.03;;;2.60;;
6667;SDS011;3370;47.712;9.082;2024-01-06T06:39:26;4.10;;;2.00;;
6667;SDS011;3370;47.712;9.082;2024-01-06T06:41:52;2.60;;;1.90;;
6667;SDS011;3370;47.712;9.082;2024-01-06T06:44:18;2.90;;;2.70;;
6667;SDS011;3370;47.712;9.082;2024-01-06T06:46:43;2.77;;;2.13;;
6667;SDS011;3370;47.712;9.082;2024-01-06T06:49:09;2.23;;;2.03;;
6667;SDS011;3370;47.712;9.082;2024-01-06T06:51:35;4.57;;;2.17;;
6667;SDS011;3370;47.712;9.082;2024-01-06T06:54:01;2.70;;;2.30;;
6667;SDS011;3370;47.712;9.082;2024-01-06T06:56:26;6.93;;;2.20;;
6667;SDS011;3370;47.712;9.082;2024-01-06T06:58:52;2.03;;;1.90;;
6667;SDS011;3370;47.712;9.082;2024-01-06T07:01:18;8.50;;;2.90;;
6667;SDS011;3370;47.712;9.082;2024-01-06T07:03:44;5.10;;;2.40;;
6667;SDS011;3370;47.712;9.082;2024-01-06T07:06:13;2.70;;;2.50;;
6667;SDS011;3370;47.712;9.082;2024-01-06T07:08:39;2.80;;;2.30;;
6667;SDS011;3370;47.712;9.082;2024-01-06T07:11:06;4.10;;;2.93;;
6667;SDS011;3370;47.712;9.082;2024-01-06T07:13:33;7.27;;;2.50;;
6667;SDS011;3370;47.712;9.082;2024-01-06T07:15:59;2.83;;;2.10;;
6667;SDS011;3370;47.712;9.082;2024-01-06T07:18:25;3.20;;;2.50;;
6667;SDS011;3370;47.712;9.082;2024-01-06T07:20:51;2.50;;;2.40;;
6667;SDS011;3370;47.712;9.082;2024-01-06T07:23:16;4.30;;;2.43;;
6667;SDS011;3370;47.712;9.082;2024-01-06T07:25:42;8.13;;;2.60;;
6667;SDS011;3370;47.712;9.082;2024-01-06T07:28:08;3.77;;;3.10;;
6667;SDS011;3370;47.712;9.082;2024-01-06T07:30:34;2.93;;;2.27;;
6667;SDS011;3370;47.712;9.082;2024-01-06T07:32:59;3.47;;;2.20;;
6667;SDS011;3370;47.712;9.082;2024-01-06T07:35:25;2.20;;;2.07;;
6667;SDS011;3370;47.712;9.082;2024-01-06T07:37:51;4.10;;;2.47;;
6667;SDS011;3370;47.712;9.082;2024-01-06T07:40:18;4.60;;;2.70;;
6667;SDS011;3370;47.712;9.082;2024-01-06T07:42:43;2.57;;;2.47;;
6667;SDS011;3370;47.712;9.082;2024-01-06T07:45:09;3.30;;;2.60;;
6667;SDS011;3370;47.712;9.082;2024-01-06T07:47:35;3.43;;;2.70;;
6667;SDS011;3370;47.712;9.082;2024-01-06T07:50:02;4.50;;;2.60;;
6667;SDS011;3370;47.712;9.082;2024-01-06T07:52:30;5.10;;;2.67;;
6667;SDS011;3370;47.712;9.082;2024-01-06T07:54:56;3.53;;;2.30;;
6667;SDS011;3370;47.712;9.082;2024-01-06T07:57:22;6.60;;;2.90;;
6667;SDS011;3370;47.712;9.082;2024-01-06T07:59:48;3.20;;;2.90;;
6667;SDS011;3370;47.712;9.082;2024-01-06T08:02:14;3.87;;;2.50;;
6667;SDS011;3370;47.712;9.082;2024-01-06T08:04:39;2.40;;;2.30;;
6667;SDS011;3370;47.712;9.082;2024-01-06T08:07:05;3.37;;;3.00;;
6667;SDS011;3370;47.712;9.082;2024-01-06T08:09:31;4.20;;;3.03;;
6667;SDS011;3370;47.712;9.082;2024-01-06T08:11:57;3.30;;;3.00;;
6667;SDS011;3370;47.712;9.082;2024-01-06T08:14:22;5.07;;;3.27;;
6667;SDS011;3370;47.712;9.082;2024-01-06T08:16:48;4.83;;;3.30;;
6667;SDS011;3370;47.712;9.082;2024-01-06T08:19:14;3.40;;;3.07;;
6667;SDS011;3370;47.712;9.082;2024-01-06T08:21:40;7.67;;;2.93;;
6667;SDS011;3370;47.712;9.082;2024-01-06T08:24:05;8.73;;;3.60;;
6667;SDS011;3370;47.712;9.082;2024-01-06T08:26:31;3.43;;;3.13;;
6667;SDS011;3370;47.712;9.082;2024-01-06T08:28:57;3.43;;;3.10;;
6667;SDS011;3370;47.712;9.082;2024-01-06T08:31:23;6.10;;;3.17;;
6667;SDS011;3370;47.712;9.082;2024-01-06T08:33:49;4.00;;;3.40;;
6667;SDS011;3370;47.712;9.082;2024-01-06T08:36:14;4.67;;;3.70;;
6667;SDS011;3370;47.712;9.082;2024-01-06T08:38:41;5.13;;;3.87;;
6667;SDS011;3370;47.712;9.082;2024-01-06T08:41:06;7.10;;;3.97;;
6667;SDS011;3370;47.712;9.082;2024-01-06T08:43:32;10.93;;;4.10;;
6667;SDS011;3370;47.712;9.082;2024-01-06T08:45:58;3.70;;;3.43;;
6667;SDS011;3370;47.712;9.082;2024-01-06T08:48:24;4.57;;;4.13;;
6667;SDS011;3370;47.712;9.082;2024-01-06T08:50:50;5.20;;;4.37;;
6667;SDS011;3370;47.712;9.082;2024-01-06T08:53:16;4.73;;;4.00;;
6667;SDS011;3370;47.712;9.082;2024-01-06T08:55:42;4.00;;;3.70;;
6667;SDS011;3370;47.712;9.082;2024-01-06T08:58:07;6.40;;;4.20;;
6667;SDS011;3370;47.712;9.082;2024-01-06T09:00:33;4.20;;;3.90;;
6667;SDS011;3370;47.712;9.082;2024-01-06T09:02:59;4.47;;;4.07;;
6667;SDS011;3370;47.712;9.082;2024-01-06T09:05:25;6.70;;;4.47;;
6667;SDS011;3370;47.712;9.082;2024-01-06T09:07:50;10.03;;;4.03;;
6667;SDS011;3370;47.712;9.082;2024-01-06T09:10:17;4.20;;;3.80;;
6667;SDS011;3370;47.712;9.082;2024-01-06T09:12:43;6.20;;;3.93;;
6667;SDS011;3370;47.712;9.082;2024-01-06T09:15:09;6.23;;;3.17;;
6667;SDS011;3370;47.712;9.082;2024-01-06T09:17:34;6.10;;;3.70;;
6667;SDS011;3370;47.712;9.082;2024-01-06T09:20:00;5.63;;;3.90;;
6667;SDS011;3370;47.712;9.082;2024-01-06T09:22:27;4.40;;;3.60;;
6667;SDS011;3370;47.712;9.082;2024-01-06T09:24:53;5.13;;;2.97;;
6667;SDS011;3370;47.712;9.082;2024-01-06T09:27:19;3.80;;;3.27;;
6667;SDS011;3370;47.712;9.082;2024-01-06T09:29:45;3.57;;;2.90;;
6667;SDS011;3370;47.712;9.082;2024-01-06T09:32:11;3.50;;;3.10;;
6667;SDS011;3370;47.712;9.082;2024-01-06T09:34:38;3.23;;;3.03;;
6667;SDS011;3370;47.712;9.082;2024-01-06T09:37:04;6.97;;;4.00;;
6667;SDS011;3370;47.712;9.082;2024-01-06T09:39:29;3.60;;;3.37;;
6667;SDS011;3370;47.712;9.082;2024-01-06T09:41:56;6.73;;;3.80;;
6667;SDS011;3370;47.712;9.082;2024-01-06T09:44:22;5.40;;;3.60;;
6667;SDS011;3370;47.712;9.082;2024-01-06T09:46:49;7.03;;;3.93;;
6667;SDS011;3370;47.712;9.082;2024-01-06T09:49:16;8.63;;;3.43;;
6667;SDS011;3370;47.712;9.082;2024-01-06T09:51:49;5.80;;;3.07;;
6667;SDS011;3370;47.712;9.082;2024-01-06T09:54:21;7.83;;;4.17;;
6667;SDS011;3370;47.712;9.082;2024-01-06T09:56:51;3.23;;;2.93;;
6667;SDS011;3370;47.712;9.082;2024-01-06T09:59:17;6.33;;;3.87;;
6667;SDS011;3370;47.712;9.082;2024-01-06T10:01:46;4.23;;;3.83;;
6667;SDS011;3370;47.712;9.082;2024-01-06T10:04:12;6.30;;;3.90;;
6667;SDS011;3370;47.712;9.082;2024-01-06T10:06:38;7.03;;;2.97;;
6667;SDS011;3370;47.712;9.082;2024-01-06T10:09:07;5.17;;;3.47;;
6667;SDS011;3370;47.712;9.082;2024-01-06T10:11:35;4.70;;;3.20;;
6667;SDS011;3370;47.712;9.082;2024-01-06T10:14:02;5.70;;;3.83;;
6667;SDS011;3370;47.712;9.082;2024-01-06T10:16:28;6.73;;;3.33;;
6667;SDS011;3370;47.712;9.082;2024-01-06T10:18:54;6.87;;;3.67;;
6667;SDS011;3370;47.712;9.082;2024-01-06T10:21:24;5.00;;;3.17;;
6667;SDS011;3370;47.712;9.082;2024-01-06T10:23:51;4.27;;;3.80;;
6667;SDS011;3370;47.712;9.082;2024-01-06T10:26:18;5.27;;;3.40;;
6667;SDS011;3370;47.712;9.082;2024-01-06T10:28:44;4.17;;;3.77;;
6667;SDS011;3370;47.712;9.082;2024-01-06T10:31:10;4.50;;;3.50;;
6667;SDS011;3370;47.712;9.082;2024-01-06T10:33:36;4.60;;;4.00;;
6667;SDS011;3370;47.712;9.082;2024-01-06T10:36:04;3.70;;;3.40;;
6667;SDS011;3370;47.712;9.082;2024-01-06T10:38:32;11.83;;;4.20;;
6667;SDS011;3370;47.712;9.082;2024-01-06T10:41:00;6.50;;;4.10;;
6667;SDS011;3370;47.712;9.082;2024-01-06T10:43:32;3.83;;;3.53;;
6667;SDS011;3370;47.712;9.082;2024-01-06T10:46:04;3.40;;;3.20;;
6667;SDS011;3370;47.712;9.082;2024-01-06T10:48:31;4.30;;;3.80;;
6667;SDS011;3370;47.712;9.082;2024-01-06T10:51:01;4.07;;;3.77;;
6667;SDS011;3370;47.712;9.082;2024-01-06T10:53:27;3.73;;;3.43;;
6667;SDS011;3370;47.712;9.082;2024-01-06T10:55:55;4.53;;;3.50;;
6667;SDS011;3370;47.712;9.082;2024-01-06T10:58:23;4.90;;;3.97;;
6667;SDS011;3370;47.712;9.082;2024-01-06T11:00:49;4.50;;;3.30;;
6667;SDS011;3370;47.712;9.082;2024-01-06T11:03:15;3.50;;;3.20;;
6667;SDS011;3370;47.712;9.082;2024-01-06T11:05:42;5.33;;;3.40;;
6667;SDS011;3370;47.712;9.082;2024-01-06T11:08:09;8.00;;;3.80;;
6667;SDS011;3370;47.712;9.082;2024-01-06T11:10:36;4.63;;;3.50;;
6667;SDS011;3370;47.712;9.082;2024-01-06T11:13:09;5.83;;;3.80;;
6667;SDS011;3370;47.712;9.082;2024-01-06T11:15:46;6.13;;;3.50;;
6667;SDS011;3370;47.712;9.082;2024-01-06T11:18:37;8.40;;;3.97;;
6667;SDS011;3370;47.712;9.082;2024-01-06T11:26:31;3.57;;;3.20;;
6667;SDS011;3370;47.712;9.082;2024-01-06T11:28:58;8.50;;;3.23;;
6667;SDS011;3370;47.712;9.082;2024-01-06T11:31:32;9.03;;;4.03;;
6667;SDS011;3370;47.712;9.082;2024-01-06T11:34:11;6.87;;;3.37;;
6667;SDS011;3370;47.712;9.082;2024-01-06T11:36:47;5.27;;;3.30;;
6667;SDS011;3370;47.712;9.082;2024-01-06T11:42:05;4.03;;;2.97;;
6667;SDS011;3370;47.712;9.082;2024-01-06T11:44:36;2.80;;;2.57;;
6667;SDS011;3370;47.712;9.082;2024-01-06T11:47:03;3.93;;;3.57;;
6667;SDS011;3370;47.712;9.082;2024-01-06T11:49:52;3.37;;;3.10;;
6667;SDS011;3370;47.712;9.082;2024-01-06T11:52:20;6.93;;;4.07;;
6667;SDS011;3370;47.712;9.082;2024-01-06T11:54:46;4.73;;;3.53;;
6667;SDS011;3370;47.712;9.082;2024-01-06T11:57:12;4.60;;;3.33;;
6667;SDS011;3370;47.712;9.082;2024-01-06T11:59:38;4.00;;;3.50;;
6667;SDS011;3370;47.712;9.082;2024-01-06T12:02:04;5.03;;;2.80;;
6667;SDS011;3370;47.712;9.082;2024-01-06T12:04:30;5.10;;;3.33;;
6667;SDS011;3370;47.712;9.082;2024-01-06T12:07:09;3.17;;;2.90;;
6667;SDS011;3370;47.712;9.082;2024-01-06T12:09:39;4.87;;;3.20;;
6667;SDS011;3370;47.712;9.082;2024-01-06T12:12:05;3.77;;;2.80;;
6667;SDS011;3370;47.712;9.082;2024-01-06T12:14:31;3.23;;;2.27;;
6667;SDS011;3370;47.712;9.082;2024-01-06T12:17:00;6.97;;;2.40;;
6667;SDS011;3370;47.712;9.082;2024-01-06T12:19:32;4.40;;;2.30;;
6667;SDS011;3370;47.712;9.082;2024-01-06T12:21:58;5.27;;;2.60;;
6667;SDS011;3370;47.712;9.082;2024-01-06T12:24:26;4.77;;;3.00;;
6667;SDS011;3370;47.712;9.082;2024-01-06T12:26:54;4.70;;;2.97;;
6667;SDS011;3370;47.712;9.082;2024-01-06T12:29:22;3.87;;;2.60;;
6667;SDS011;3370;47.712;9.082;2024-01-06T12:31:48;4.00;;;2.50;;
6667;SDS011;3370;47.712;9.082;2024-01-06T12:34:14;3.43;;;2.30;;
6667;SDS011;3370;47.712;9.082;2024-01-06T12:36:41;2.33;;;2.13;;
6667;SDS011;3370;47.712;9.082;2024-01-06T12:39:12;2.60;;;2.13;;
6667;SDS011;3370;47.712;9.082;2024-01-06T12:41:39;2.40;;;2.13;;
6667;SDS011;3370;47.712;9.082;2024-01-06T12:44:09;2.60;;;2.40;;
6667;SDS011;3370;47.712;9.082;2024-01-06T12:46:35;5.27;;;2.30;;
6667;SDS011;3370;47.712;9.082;2024-01-06T12:49:01;7.10;;;2.47;;
6667;SDS011;3370;47.712;9.082;2024-01-06T12:51:27;5.80;;;3.40;;
6667;SDS011;3370;47.712;9.082;2024-01-06T12:53:53;6.60;;;2.73;;
6667;SDS011;3370;47.712;9.082;2024-01-06T12:56:19;5.10;;;2.70;;
6667;SDS011;3370;47.712;9.082;2024-01-06T12:58:45;8.07;;;2.87;;
6667;SDS011;3370;47.712;9.082;2024-01-06T13:01:11;4.70;;;2.53;;
6667;SDS011;3370;47.712;9.082;2024-01-06T13:03:37;5.33;;;2.93;;
6667;SDS011;3370;47.712;9.082;2024-01-06T13:06:03;9.57;;;3.70;;
6667;SDS011;3370;47.712;9.082;2024-01-06T13:08:29;7.63;;;3.10;;
6667;SDS011;3370;47.712;9.082;2024-01-06T13:10:55;5.40;;;2.97;;
6667;SDS011;3370;47.712;9.082;2024-01-06T13:13:21;3.60;;;2.93;;
6667;SDS011;3370;47.712;9.082;2024-01-06T13:15:47;5.83;;;2.70;;
6667;SDS011;3370;47.712;9.082;2024-01-06T13:18:13;6.97;;;3.07;;
6667;SDS011;3370;47.712;9.082;2024-01-06T13:20:39;3.47;;;2.80;;
6667;SDS011;3370;47.712;9.082;2024-01-06T13:23:08;2.10;;;2.00;;
6667;SDS011;3370;47.712;9.082;2024-01-06T13:25:36;4.50;;;2.83;;
6667;SDS011;3370;47.712;9.082;2024-01-06T13:28:06;5.80;;;2.90;;
6667;SDS011;3370;47.712;9.082;2024-01-06T13:30:33;4.57;;;3.10;;
6667;SDS011;3370;47.712;9.082;2024-01-06T13:32:59;8.67;;;3.10;;
6667;SDS011;3370;47.712;9.082;2024-01-06T13:35:25;4.10;;;3.40;;
6667;SDS011;3370;47.712;9.082;2024-01-06T13:37:54;4.83;;;2.70;;
6667;SDS011;3370;47.712;9.082;2024-01-06T13:40:21;9.30;;;5.57;;
6667;SDS011;3370;47.712;9.082;2024-01-06T13:42:50;5.37;;;4.47;;
6667;SDS011;3370;47.712;9.082;2024-01-06T13:45:17;4.43;;;2.80;;
6667;SDS011;3370;47.712;9.082;2024-01-06T13:47:43;4.43;;;2.90;;
6667;SDS011;3370;47.712;9.082;2024-01-06T13:50:13;5.27;;;3.33;;
6667;SDS011;3370;47.712;9.082;2024-01-06T13:52:42;2.77;;;2.50;;
6667;SDS011;3370;47.712;9.082;2024-01-06T13:55:08;3.47;;;2.50;;
6667;SDS011;3370;47.712;9.082;2024-01-06T13:57:35;4.23;;;3.00;;
6667;SDS011;3370;47.712;9.082;2024-01-06T14:00:06;2.70;;;2.50;;
6667;SDS011;3370;47.712;9.082;2024-01-06T14:02:36;6.20;;;2.67;;
6667;SDS011;3370;47.712;9.082;2024-01-06T14:05:03;6.73;;;3.20;;
6667;SDS011;3370;47.712;9.082;2024-01-06T14:07:33;4.53;;;3.30;;
6667;SDS011;3370;47.712;9.082;2024-01-06T14:10:00;6.20;;;2.87;;
6667;SDS011;3370;47.712;9.082;2024-01-06T14:12:28;5.73;;;3.20;;
6667;SDS011;3370;47.712;9.082;2024-01-06T14:14:55;4.90;;;3.00;;
6667;SDS011;3370;47.712;9.082;2024-01-06T14:17:21;4.60;;;3.40;;
6667;SDS011;3370;47.712;9.082;2024-01-06T14:19:47;6.67;;;3.37;;
6667;SDS011;3370;47.712;9.082;2024-01-06T14:22:12;3.90;;;2.90;;
6667;SDS011;3370;47.712;9.082;2024-01-06T14:24:39;3.93;;;3.53;;
6667;SDS011;3370;47.712;9.082;2024-01-06T14:27:05;6.13;;;4.13;;
6667;SDS011;3370;47.712;9.082;2024-01-06T14:29:31;29.67;;;15.37;;
6667;SDS011;3370;47.712;9.082;2024-01-06T14:31:57;7.00;;;5.90;;
6667;SDS011;3370;47.712;9.082;2024-01-06T14:34:23;16.43;;;10.23;;
6667;SDS011;3370;47.712;9.082;2024-01-06T14:36:49;9.70;;;5.70;;
6667;SDS011;3370;47.712;9.082;2024-01-06T14:39:15;10.80;;;5.87;;
6667;SDS011;3370;47.712;9.082;2024-01-06T14:41:42;12.20;;;8.03;;
6667;SDS011;3370;47.712;9.082;2024-01-06T14:44:08;11.10;;;6.37;;
6667;SDS011;3370;47.712;9.082;2024-01-06T14:46:34;12.87;;;7.10;;
6667;SDS011;3370;47.712;9.082;2024-01-06T14:49:02;9.50;;;6.27;;
6667;SDS011;3370;47.712;9.082;2024-01-06T14:51:28;14.70;;;7.40;;
6667;SDS011;3370;47.712;9.082;2024-01-06T14:53:54;11.07;;;6.47;;
6667;SDS011;3370;47.712;9.082;2024-01-06T14:56:23;27.00;;;13.17;;
6667;SDS011;3370;47.712;9.082;2024-01-06T14:58:50;17.27;;;10.67;;
6667;SDS011;3370;47.712;9.082;2024-01-06T15:01:15;12.00;;;7.10;;
6667;SDS011;3370;47.712;9.082;2024-01-06T15:03:42;24.03;;;13.53;;
6667;SDS011;3370;47.712;9.082;2024-01-06T15:06:08;45.27;;;22.77;;
6667;SDS011;3370;47.712;9.082;2024-01-06T15:08:34;25.53;;;15.93;;
6667;SDS011;3370;47.712;9.082;2024-01-06T15:11:00;26.40;;;15.90;;
6667;SDS011;3370;47.712;9.082;2024-01-06T15:13:27;31.53;;;17.30;;
6667;SDS011;3370;47.712;9.082;2024-01-06T15:15:53;30.50;;;14.17;;